createdAt,value
2019-03-09T00:00:02.040Z,3.00
2019-03-09T00:02:31.826Z,2.20
2019-03-09T00:05:02.305Z,2.20
2019-03-09T00:07:32.015Z,3.00
2019-03-09T00:10:01.638Z,3.00
2019-03-09T00:12:31.530Z,1.00
2019-03-09T00:15:01.112Z,4.00
2019-03-09T00:17:30.748Z,0.40
2019-03-09T00:20:01.323Z,2.60
2019-03-09T00:22:30.906Z,3.00
2019-03-09T00:25:07.813Z,2.20
2019-03-09T00:27:56.955Z,1.00
2019-03-09T00:30:38.192Z,2.60
2019-03-09T00:33:08.761Z,1.40
2019-03-09T00:35:38.664Z,1.00
2019-03-09T00:38:08.352Z,0.80
2019-03-09T00:40:38.018Z,1.40
2019-03-09T00:43:08.352Z,0.00
2019-03-09T00:45:38.176Z,1.00
2019-03-09T00:48:07.870Z,1.00
2019-03-09T00:50:37.548Z,3.00
2019-03-09T00:53:07.290Z,1.00
2019-03-09T00:55:36.856Z,1.80
2019-03-09T00:58:06.689Z,1.00
2019-03-09T01:00:38.176Z,2.60
2019-03-09T01:03:08.072Z,1.00
2019-03-09T01:05:38.340Z,1.00
2019-03-09T01:08:08.019Z,2.20
2019-03-09T01:10:37.963Z,3.00
2019-03-09T01:13:07.701Z,3.00
2019-03-09T01:15:37.362Z,3.60
2019-03-09T01:18:06.959Z,0.80
2019-03-09T01:20:37.083Z,4.40
2019-03-09T01:23:06.740Z,3.40
2019-03-09T01:25:36.352Z,3.20
2019-03-09T01:28:06.648Z,1.00
2019-03-09T01:30:36.330Z,3.00
2019-03-09T01:33:05.912Z,3.00
2019-03-09T01:35:36.011Z,3.00
2019-03-09T01:38:06.055Z,3.80
2019-03-09T01:40:35.847Z,4.00
2019-03-09T01:43:05.879Z,1.40
2019-03-09T01:45:35.955Z,3.20
2019-03-09T01:48:05.795Z,3.20
2019-03-09T01:50:35.306Z,4.00
2019-03-09T01:53:04.953Z,3.20
2019-03-09T01:55:34.952Z,4.00
2019-03-09T01:58:04.945Z,3.00
2019-03-09T02:00:35.302Z,3.20
2019-03-09T02:03:05.373Z,4.80
2019-03-09T02:05:35.858Z,3.00
2019-03-09T02:08:05.475Z,5.20
2019-03-09T02:10:35.416Z,3.80
2019-03-09T02:13:05.702Z,5.60
2019-03-09T02:15:35.689Z,4.00
2019-03-09T02:18:05.380Z,4.00
2019-03-09T02:20:34.968Z,5.60
2019-03-09T02:23:04.783Z,4.20
2019-03-09T02:25:34.655Z,3.00
2019-03-09T02:28:04.292Z,6.20
2019-03-09T02:30:34.122Z,3.00
2019-03-09T02:33:04.139Z,4.00
2019-03-09T02:35:34.301Z,4.00
2019-03-09T02:38:12.206Z,3.00
2019-03-09T02:40:41.983Z,4.00
2019-03-09T02:43:11.557Z,4.00
2019-03-09T02:45:41.179Z,3.20
2019-03-09T02:48:10.735Z,3.60
2019-03-09T02:50:55.751Z,4.00
2019-03-09T02:53:26.643Z,3.60
2019-03-09T02:55:56.547Z,3.00
2019-03-09T02:58:26.370Z,1.00
2019-03-09T03:01:10.227Z,4.60
2019-03-09T03:03:39.930Z,1.00
2019-03-09T03:06:09.670Z,4.40
2019-03-09T03:08:39.582Z,4.40
2019-03-09T03:11:10.922Z,3.00
2019-03-09T03:13:40.505Z,6.00
2019-03-09T03:16:10.200Z,3.00
2019-03-09T03:18:40.486Z,3.00
2019-03-09T03:21:10.196Z,1.00
2019-03-09T03:23:39.836Z,3.60
2019-03-09T03:26:09.462Z,3.60
2019-03-09T03:28:39.201Z,3.00
2019-03-09T03:31:09.040Z,3.80
2019-03-09T03:33:38.742Z,4.00
2019-03-09T03:36:08.457Z,3.80
2019-03-09T03:38:38.274Z,2.60
2019-03-09T03:41:08.754Z,3.80
2019-03-09T03:43:38.492Z,3.00
2019-03-09T03:46:08.055Z,3.00
2019-03-09T03:48:37.697Z,0.20
2019-03-09T03:51:07.292Z,1.00
2019-03-09T03:53:37.750Z,1.00
2019-03-09T03:56:07.367Z,1.40
2019-03-09T03:58:37.090Z,2.60
2019-03-09T04:01:06.721Z,3.20
2019-03-09T04:03:36.480Z,3.00
2019-03-09T04:06:06.108Z,3.00
2019-03-09T04:08:36.129Z,1.80
2019-03-09T04:11:06.370Z,4.00
2019-03-09T04:13:36.663Z,3.00
2019-03-09T04:16:06.561Z,3.00
2019-03-09T04:18:36.424Z,4.00
2019-03-09T04:21:06.027Z,3.60
2019-03-09T04:23:35.697Z,3.00
2019-03-09T04:26:05.600Z,4.00
2019-03-09T04:28:35.777Z,4.00
2019-03-09T04:31:06.415Z,3.00
2019-03-09T04:33:36.070Z,3.60
2019-03-09T04:36:05.532Z,2.20
2019-03-09T04:38:35.283Z,5.60
2019-03-09T04:41:04.945Z,3.20
2019-03-09T04:43:35.177Z,5.80
2019-03-09T04:46:04.859Z,1.00
2019-03-09T04:48:34.405Z,4.40
2019-03-09T04:51:04.117Z,3.40
2019-03-09T04:53:33.884Z,0.80
2019-03-09T04:56:03.605Z,3.00
2019-03-09T04:58:34.427Z,2.80
2019-03-09T05:01:04.100Z,3.00
2019-03-09T05:03:33.878Z,2.60
2019-03-09T05:06:03.519Z,3.60
2019-03-09T05:09:17.364Z,2.20
2019-03-09T05:11:47.188Z,2.20
2019-03-09T05:14:20.667Z,0.00
2019-03-09T05:16:50.315Z,1.80
2019-03-09T05:19:20.012Z,2.60
2019-03-09T05:21:49.827Z,3.00
2019-03-09T05:24:19.685Z,1.40
2019-03-09T05:26:49.497Z,1.00
2019-03-09T05:29:19.389Z,3.00
2019-03-09T05:31:49.230Z,4.40
2019-03-09T05:34:19.295Z,3.00
2019-03-09T05:36:48.813Z,3.00
2019-03-09T05:39:19.000Z,4.40
2019-03-09T05:41:48.771Z,4.00
2019-03-09T05:44:18.790Z,3.60
2019-03-09T05:46:48.353Z,3.00
2019-03-09T05:49:18.052Z,4.80
2019-03-09T05:52:41.938Z,4.00
2019-03-09T05:55:22.194Z,4.00
2019-03-09T05:57:51.658Z,6.00
2019-03-09T06:00:21.309Z,7.00
2019-03-09T06:02:51.401Z,9.00
2019-03-09T06:05:41.096Z,6.20
2019-03-09T06:08:11.173Z,5.20
2019-03-09T06:10:41.108Z,4.00
2019-03-09T06:13:10.978Z,7.20
2019-03-09T06:15:40.702Z,6.80
2019-03-09T06:18:10.521Z,7.00
2019-03-09T06:20:40.095Z,4.80
2019-03-09T06:23:09.597Z,4.00
2019-03-09T06:25:40.149Z,10.00
2019-03-09T06:28:09.653Z,6.00
2019-03-09T06:30:39.091Z,10.00
2019-03-09T06:33:37.277Z,9.00
2019-03-09T06:36:52.291Z,3.20
2019-03-09T06:39:42.926Z,10.40
2019-03-09T06:42:35.468Z,9.20
2019-03-09T06:45:05.690Z,10.00
2019-03-09T06:47:35.359Z,7.80
2019-03-09T06:50:05.297Z,9.00
2019-03-09T06:52:35.263Z,7.00
2019-03-09T06:55:05.798Z,3.80
2019-03-09T06:57:35.482Z,4.40
2019-03-09T07:00:42.463Z,9.00
2019-03-09T07:03:13.391Z,7.80
2019-03-09T07:05:43.126Z,3.60
2019-03-09T07:08:12.702Z,9.80
2019-03-09T07:10:42.479Z,7.00
2019-03-09T07:13:12.375Z,6.60
2019-03-09T07:15:45.248Z,9.80
2019-03-09T07:18:26.149Z,8.60
2019-03-09T07:20:55.952Z,6.60
2019-03-09T07:23:26.445Z,9.20
2019-03-09T07:25:56.301Z,12.40
2019-03-09T07:28:26.265Z,13.40
2019-03-09T07:30:56.536Z,12.00
2019-03-09T07:33:26.601Z,8.20
2019-03-09T07:35:57.024Z,10.00
2019-03-09T07:38:27.581Z,14.20
2019-03-09T07:40:57.571Z,10.80
2019-03-09T07:43:27.332Z,6.40
2019-03-09T07:45:57.538Z,9.00
2019-03-09T07:48:27.417Z,6.40
2019-03-09T07:50:57.346Z,12.00
2019-03-09T07:53:27.459Z,6.00
2019-03-09T07:55:57.728Z,7.00
2019-03-09T07:58:27.325Z,9.20
2019-03-09T08:00:58.151Z,6.20
2019-03-09T08:03:28.343Z,6.60
2019-03-09T08:05:58.183Z,6.80
2019-03-09T08:08:28.066Z,7.40
2019-03-09T08:10:58.521Z,9.20
2019-03-09T08:13:29.078Z,6.20
2019-03-09T08:15:59.122Z,6.40
2019-03-09T08:18:28.952Z,9.00
2019-03-09T08:20:58.490Z,8.60
2019-03-09T08:23:28.470Z,5.20
2019-03-09T08:25:58.589Z,6.40
2019-03-09T08:28:31.629Z,6.60
2019-03-09T08:31:01.794Z,7.00
2019-03-09T08:33:31.551Z,5.60
2019-03-09T08:36:03.254Z,3.60
2019-03-09T08:38:33.033Z,5.40
2019-03-09T08:41:03.151Z,7.00
2019-03-09T08:43:33.141Z,6.80
2019-03-09T08:46:03.181Z,6.60
2019-03-09T08:48:33.264Z,6.80
2019-03-09T08:51:02.829Z,6.40
2019-03-09T08:53:35.570Z,7.00
2019-03-09T08:56:05.462Z,7.00
2019-03-09T08:58:35.125Z,4.80
2019-03-09T09:01:05.815Z,6.00
2019-03-09T09:03:35.803Z,7.00
2019-03-09T09:06:06.137Z,10.40
2019-03-09T09:08:35.824Z,10.40
2019-03-09T09:11:05.585Z,9.60
2019-03-09T09:13:35.287Z,7.00
2019-03-09T09:16:05.199Z,7.00
2019-03-09T09:18:34.997Z,9.40
2019-03-09T09:21:04.778Z,5.60
2019-03-09T09:23:41.011Z,2.20
2019-03-09T09:26:11.141Z,3.00
2019-03-09T09:28:41.033Z,9.20
2019-03-09T09:31:10.886Z,4.40
2019-03-09T09:33:40.606Z,6.60
2019-03-09T09:36:10.174Z,7.20
2019-03-09T09:38:39.743Z,8.60
2019-03-09T09:41:09.666Z,4.00
2019-03-09T09:43:39.147Z,6.40
2019-03-09T09:46:09.045Z,8.20
2019-03-09T09:48:38.520Z,6.00
2019-03-09T09:51:08.350Z,5.60
2019-03-09T09:53:38.809Z,4.00
2019-03-09T09:56:09.132Z,6.80
2019-03-09T09:58:38.855Z,4.40
2019-03-09T10:01:09.355Z,4.60
2019-03-09T10:03:39.063Z,6.00
2019-03-09T10:06:08.611Z,6.00
2019-03-09T10:08:38.076Z,6.40
2019-03-09T10:11:08.006Z,4.00
2019-03-09T10:13:38.394Z,4.40
2019-03-09T10:16:11.333Z,7.00
2019-03-09T10:18:41.094Z,6.00
2019-03-09T10:21:10.572Z,7.00
2019-03-09T10:23:42.238Z,6.40
2019-03-09T10:26:11.759Z,7.80
2019-03-09T10:28:41.474Z,7.00
2019-03-09T10:31:11.984Z,6.00
2019-03-09T10:33:41.507Z,9.20
2019-03-09T10:36:11.086Z,6.60
2019-03-09T10:38:41.477Z,6.00
2019-03-09T10:41:11.123Z,6.80
2019-03-09T10:43:41.456Z,9.00
2019-03-09T10:46:11.052Z,6.20
2019-03-09T10:48:41.089Z,6.00
2019-03-09T10:51:10.909Z,5.60
2019-03-09T10:53:40.895Z,3.60
2019-03-09T10:56:10.389Z,6.00
2019-03-09T10:58:40.086Z,6.20
2019-03-09T11:01:09.636Z,6.00
2019-03-09T11:03:39.428Z,5.60
2019-03-09T11:06:09.248Z,9.40
2019-03-09T11:08:42.154Z,9.00
2019-03-09T11:11:11.996Z,4.40
2019-03-09T11:13:51.852Z,5.60
2019-03-09T11:16:25.727Z,7.00
2019-03-09T11:18:58.104Z,8.60
2019-03-09T11:21:28.155Z,6.00
2019-03-09T11:23:58.137Z,9.00
2019-03-09T11:26:27.907Z,7.00
2019-03-09T11:28:58.584Z,3.80
2019-03-09T11:31:28.270Z,4.40
2019-03-09T11:33:58.015Z,6.00
2019-03-09T11:36:27.550Z,4.00
2019-03-09T11:38:58.257Z,4.00
2019-03-09T11:41:27.910Z,3.20
2019-03-09T11:43:58.155Z,3.00
2019-03-09T11:46:28.028Z,7.00
2019-03-09T11:48:57.607Z,3.00
2019-03-09T11:51:27.306Z,4.20
2019-03-09T11:53:58.168Z,3.00
2019-03-09T11:56:27.641Z,4.00
2019-03-09T11:58:57.376Z,3.00
2019-03-09T12:01:26.976Z,3.00
2019-03-09T12:03:56.740Z,3.00
2019-03-09T12:06:27.275Z,3.00
2019-03-09T12:09:00.094Z,1.00
2019-03-09T12:11:36.231Z,3.00
2019-03-09T12:14:05.899Z,1.40
2019-03-09T12:16:35.398Z,3.20
2019-03-09T12:19:05.762Z,3.00
2019-03-09T12:21:35.395Z,3.40
2019-03-09T12:24:15.844Z,1.40
2019-03-09T12:26:38.461Z,1.00
2019-03-09T12:29:10.970Z,1.00
2019-03-09T12:31:40.771Z,3.00
2019-03-09T12:34:10.645Z,3.00
2019-03-09T12:36:40.436Z,0.20
2019-03-09T12:39:10.241Z,0.40
2019-03-09T12:41:40.208Z,1.00
2019-03-09T12:44:10.069Z,0.00
2019-03-09T12:46:41.853Z,0.00
2019-03-09T12:49:12.315Z,1.00
2019-03-09T12:51:41.914Z,1.00
2019-03-09T12:54:11.623Z,1.00
2019-03-09T12:56:43.146Z,1.40
2019-03-09T12:59:13.737Z,1.00
2019-03-09T13:01:43.360Z,4.00
2019-03-09T13:04:13.761Z,0.20
2019-03-09T13:06:45.924Z,3.00
2019-03-09T13:09:19.600Z,4.00
2019-03-09T13:11:52.759Z,4.00
2019-03-09T13:14:22.467Z,3.20
2019-03-09T13:16:52.422Z,6.00
2019-03-09T13:19:22.542Z,5.40
2019-03-09T13:21:52.285Z,3.80
2019-03-09T13:24:21.973Z,4.00
2019-03-09T13:26:51.649Z,4.00
2019-03-09T13:29:21.208Z,3.40
2019-03-09T13:31:52.372Z,3.00
2019-03-09T13:34:22.178Z,4.00
2019-03-09T13:36:51.725Z,3.20
2019-03-09T13:39:21.634Z,6.00
2019-03-09T13:41:51.312Z,3.60
2019-03-09T13:44:21.223Z,3.40
2019-03-09T13:46:54.716Z,1.00
2019-03-09T13:49:24.276Z,4.00
2019-03-09T13:51:53.817Z,3.00
2019-03-09T13:54:24.028Z,5.60
2019-03-09T13:56:53.617Z,6.00
2019-03-09T13:59:23.113Z,1.80
2019-03-09T14:01:53.079Z,2.20
2019-03-09T14:04:24.450Z,5.20
2019-03-09T14:06:54.042Z,2.20
2019-03-09T14:09:24.510Z,3.00
2019-03-09T14:11:54.048Z,5.60
2019-03-09T14:14:23.718Z,4.00
2019-03-09T14:16:53.478Z,5.60
2019-03-09T14:19:23.109Z,3.20
2019-03-09T14:21:53.027Z,4.00
2019-03-09T14:24:26.400Z,4.00
2019-03-09T14:26:56.228Z,3.20
2019-03-09T14:29:26.383Z,2.60
2019-03-09T14:31:56.323Z,2.20
2019-03-09T14:34:26.098Z,2.20
2019-03-09T14:36:56.056Z,3.60
2019-03-09T14:39:26.375Z,3.00
2019-03-09T14:41:56.234Z,2.60
2019-03-09T14:44:26.170Z,9.60
2019-03-09T14:46:56.424Z,4.40
2019-03-09T14:49:26.664Z,6.00
2019-03-09T14:51:56.400Z,3.80
2019-03-09T14:54:26.149Z,4.40
2019-03-09T14:56:57.555Z,4.20
2019-03-09T14:59:27.019Z,5.80
2019-03-09T15:01:56.624Z,4.00
2019-03-09T15:04:27.028Z,1.00
2019-03-09T15:06:56.467Z,4.80
2019-03-09T15:09:26.294Z,7.00
2019-03-09T15:11:55.800Z,6.00
2019-03-09T15:14:25.341Z,3.00
2019-03-09T15:16:55.186Z,4.60
2019-03-09T15:19:25.021Z,3.00
2019-03-09T15:21:54.661Z,4.40
2019-03-09T15:24:24.043Z,2.20
2019-03-09T15:26:53.740Z,3.80
2019-03-09T15:29:23.357Z,4.00
2019-03-09T15:31:52.878Z,3.60
2019-03-09T15:34:22.321Z,3.00
2019-03-09T15:36:52.244Z,4.00
2019-03-09T15:39:21.903Z,3.80
2019-03-09T15:41:51.980Z,6.00
2019-03-09T15:44:23.199Z,3.80
2019-03-09T15:46:53.045Z,6.40
2019-03-09T15:49:25.640Z,3.00
2019-03-09T15:51:55.725Z,1.00
2019-03-09T15:54:25.757Z,4.40
2019-03-09T15:56:57.888Z,5.00
2019-03-09T15:59:27.735Z,1.00
2019-03-09T16:01:57.286Z,3.00
2019-03-09T16:04:28.142Z,4.80
2019-03-09T16:06:57.961Z,2.60
2019-03-09T16:09:27.851Z,4.80
2019-03-09T16:11:57.773Z,1.00
2019-03-09T16:14:27.240Z,1.00
2019-03-09T16:16:59.219Z,1.00
2019-03-09T16:19:29.054Z,3.20
2019-03-09T16:21:59.715Z,0.00
2019-03-09T16:24:29.274Z,1.80
2019-03-09T16:26:59.349Z,1.00
2019-03-09T16:29:29.045Z,3.20
2019-03-09T16:31:59.130Z,1.00
2019-03-09T16:34:28.716Z,3.60
2019-03-09T16:36:58.380Z,1.00
2019-03-09T16:39:28.214Z,3.00
2019-03-09T16:41:57.841Z,3.80
2019-03-09T16:44:27.706Z,1.80
2019-03-09T16:46:58.175Z,3.00
2019-03-09T16:49:28.985Z,3.00
2019-03-09T16:51:59.095Z,0.00
2019-03-09T16:54:29.122Z,3.00
2019-03-09T16:57:02.778Z,1.40
2019-03-09T16:59:32.703Z,0.00
2019-03-09T17:02:05.203Z,0.20
2019-03-09T17:04:35.474Z,0.00
2019-03-09T17:07:13.756Z,0.00
2019-03-09T17:09:46.682Z,0.40
2019-03-09T17:12:16.892Z,1.00
2019-03-09T17:14:47.025Z,0.00
2019-03-09T17:17:22.490Z,0.00
2019-03-09T17:19:52.686Z,0.80
2019-03-09T17:22:32.442Z,0.00
2019-03-09T17:24:53.639Z,1.00
2019-03-09T17:27:25.154Z,0.00
2019-03-09T17:29:55.097Z,0.00
2019-03-09T17:32:26.545Z,0.60
2019-03-09T17:34:57.129Z,0.00
2019-03-09T17:37:26.480Z,0.20
2019-03-09T17:39:56.543Z,0.20
2019-03-09T17:42:26.274Z,1.00
2019-03-09T17:44:56.190Z,0.00
2019-03-09T17:47:27.687Z,0.00
2019-03-09T17:49:57.800Z,0.00
2019-03-09T17:52:27.638Z,0.20
2019-03-09T17:54:57.274Z,1.40
2019-03-09T17:57:27.614Z,0.80
2019-03-09T17:59:57.927Z,1.00
2019-03-09T18:02:27.537Z,0.40
2019-03-09T18:04:59.097Z,1.00
2019-03-09T18:07:31.211Z,1.00
2019-03-09T18:10:00.812Z,1.00
2019-03-09T18:12:30.435Z,0.20
2019-03-09T18:14:59.910Z,0.60
2019-03-09T18:17:29.882Z,0.20
2019-03-09T18:19:59.711Z,0.00
2019-03-09T18:22:29.310Z,0.60
2019-03-09T18:24:59.180Z,1.00
2019-03-09T18:27:29.016Z,1.00
2019-03-09T18:29:58.554Z,1.40
2019-03-09T18:32:28.095Z,3.00
2019-03-09T18:34:57.978Z,1.40
2019-03-09T18:37:28.134Z,3.00
2019-03-09T18:39:58.291Z,0.60
2019-03-09T18:42:32.354Z,0.00
2019-03-09T18:45:02.350Z,3.80
2019-03-09T18:47:31.755Z,0.00
2019-03-09T18:50:02.299Z,1.00
2019-03-09T18:52:35.862Z,3.40
2019-03-09T18:55:06.354Z,0.00
2019-03-09T18:57:36.266Z,3.20
2019-03-09T19:00:14.006Z,0.20
2019-03-09T19:02:43.904Z,1.00
2019-03-09T19:05:13.399Z,2.20
2019-03-09T19:07:43.236Z,1.00
2019-03-09T19:10:15.098Z,1.00
2019-03-09T19:12:44.691Z,1.00
2019-03-09T19:15:14.286Z,1.00
2019-03-09T19:17:45.762Z,0.60
2019-03-09T19:20:15.474Z,0.00
2019-03-09T19:22:44.992Z,0.00
2019-03-09T19:25:15.960Z,1.00
2019-03-09T19:27:45.599Z,0.00
2019-03-09T19:30:16.099Z,0.00
2019-03-09T19:32:45.923Z,2.20
2019-03-09T19:35:17.085Z,0.80
2019-03-09T19:37:46.844Z,3.00
2019-03-09T19:40:16.825Z,1.00
2019-03-09T19:42:47.144Z,0.20
2019-03-09T19:45:16.643Z,1.00
2019-03-09T19:47:48.451Z,1.00
2019-03-09T19:50:21.174Z,1.00
2019-03-09T19:52:51.536Z,0.00
2019-03-09T19:55:23.617Z,1.00
2019-03-09T19:57:56.116Z,1.00
2019-03-09T20:00:26.320Z,0.00
2019-03-09T20:02:55.783Z,1.00
2019-03-09T20:05:25.319Z,1.00
2019-03-09T20:07:55.772Z,0.60
2019-03-09T20:10:26.009Z,1.00
2019-03-09T20:12:55.645Z,1.00
2019-03-09T20:15:25.464Z,0.00
2019-03-09T20:17:55.167Z,3.60
2019-03-09T20:20:24.701Z,1.00
2019-03-09T20:22:54.274Z,0.00
2019-03-09T20:25:23.751Z,1.80
2019-03-09T20:27:53.168Z,1.40
2019-03-09T20:30:25.699Z,2.60
2019-03-09T20:32:55.592Z,4.60
2019-03-09T20:35:25.066Z,1.00
2019-03-09T20:37:56.471Z,3.60
2019-03-09T20:40:29.268Z,1.00
2019-03-09T20:42:59.723Z,2.20
2019-03-09T20:45:29.269Z,1.00
2019-03-09T20:48:01.751Z,4.00
2019-03-09T20:50:32.144Z,0.00
2019-03-09T20:53:01.732Z,1.40
2019-03-09T20:55:33.794Z,1.00
2019-03-09T20:58:04.011Z,1.00
2019-03-09T21:00:33.851Z,0.60
2019-03-09T21:03:03.495Z,1.80
2019-03-09T21:05:33.263Z,1.00
2019-03-09T21:08:02.830Z,0.00
2019-03-09T21:10:32.585Z,0.00
2019-03-09T21:13:07.183Z,1.00
2019-03-09T21:15:37.093Z,0.80
2019-03-09T21:18:06.774Z,1.40
2019-03-09T21:20:36.596Z,1.00
2019-03-09T21:23:06.217Z,1.00
2019-03-09T21:25:35.891Z,1.00
2019-03-09T21:28:10.689Z,3.00
2019-03-09T21:30:43.160Z,1.00
2019-03-09T21:33:15.744Z,1.00
2019-03-09T21:35:45.294Z,1.00
2019-03-09T21:38:15.212Z,0.00
2019-03-09T21:40:45.003Z,0.00
2019-03-09T21:43:14.754Z,0.00
2019-03-09T21:45:45.369Z,1.00
2019-03-09T21:48:15.596Z,0.00
2019-03-09T21:50:46.323Z,1.40
2019-03-09T21:53:15.975Z,1.00
2019-03-09T21:55:45.759Z,1.00
2019-03-09T21:58:15.607Z,1.00
2019-03-09T22:00:45.605Z,0.40
2019-03-09T22:03:18.446Z,1.40
2019-03-09T22:05:48.387Z,0.40
2019-03-09T22:08:19.485Z,1.80
2019-03-09T22:10:49.597Z,1.00
2019-03-09T22:13:19.565Z,0.60
2019-03-09T22:15:49.909Z,2.20
2019-03-09T22:18:19.613Z,0.20
2019-03-09T22:20:49.237Z,0.00
2019-03-09T22:23:18.937Z,0.60
2019-03-09T22:25:49.134Z,0.80
2019-03-09T22:28:19.095Z,1.80
2019-03-09T22:30:49.697Z,0.00
2019-03-09T22:33:19.541Z,1.00
2019-03-09T22:35:49.574Z,0.00
2019-03-09T22:38:19.871Z,0.60
2019-03-09T22:40:49.611Z,0.80
2019-03-09T22:43:19.310Z,3.00
2019-03-09T22:45:49.923Z,0.20
2019-03-09T22:48:19.958Z,2.20
2019-03-09T22:50:49.992Z,0.60
2019-03-09T22:53:19.481Z,0.00
2019-03-09T22:55:49.253Z,1.40
2019-03-09T22:58:18.721Z,1.80
2019-03-09T23:00:49.583Z,3.00
2019-03-09T23:03:19.160Z,1.00
2019-03-09T23:05:49.290Z,0.00
2019-03-09T23:08:19.156Z,1.00
2019-03-09T23:10:48.985Z,0.60
2019-03-09T23:13:18.807Z,1.40
2019-03-09T23:15:48.431Z,0.40
2019-03-09T23:18:18.052Z,0.00
2019-03-09T23:20:47.651Z,0.40
2019-03-09T23:23:17.295Z,2.60
2019-03-09T23:25:46.880Z,1.00
2019-03-09T23:28:17.193Z,2.80
2019-03-09T23:30:47.193Z,0.40
2019-03-09T23:33:17.109Z,3.60
2019-03-09T23:35:46.958Z,2.20
2019-03-09T23:38:16.777Z,3.40
2019-03-09T23:40:47.146Z,0.00
2019-03-09T23:43:17.348Z,5.60
2019-03-09T23:45:47.089Z,1.20
2019-03-09T23:48:16.712Z,1.80
2019-03-09T23:50:46.467Z,3.00
2019-03-09T23:53:16.097Z,4.00
2019-03-09T23:55:46.430Z,3.20
2019-03-09T23:58:16.022Z,1.00
